Site contains unofficial IBTrACS data. Visit the IBTrACS Website to access archived data.

1888 Severe Cyclonic Storm NOT_NAMED (1888257N15099)


IBTrACS version v04r00. Visit IBTrACS website for data access.
Please direct all questions to the IBTrACS Q and A forum

Storm track - Intensity - Wind Radii - Intensity Data - Source Data - All data

Summary Information

Storm ID 1888257N15099
Start Sep 13 00Z
Landfall Sep 13 21Z, Sep 15 21Z
Max Intensity 64 kt (Sep 13 12Z)
End Sep 20 03Z
ATCF IDs
Track status Best track data.

Storm track plot

Map of storm track

Intensity plots

Map of storm track

Radial wind information

No radial wind information for this storm


Position and Intensity Table

BASIN ISO_TIME_________ NATURE LAT LON DS824 WIND
degrees north degrees east kts
NI 1888-09-13 00:00:00 TS 14.90 98.90 45
NI 03:00:00 TS 14.99 98.53 49
NI 06:00:00 TS 15.15 98.02 54
NI 09:00:00 TS 15.33 97.49 59
NI 12:00:00 TS 15.51 96.98 64
NI 15:00:00 TS 15.70 96.42 64
NI 18:00:00 TS 15.89 95.87 64
NI 21:00:00 TS 16.08 95.32 64
NI 1888-09-14 00:00:00 TS 16.29 94.77 64
NI 03:00:00 TS 16.52 94.22 64
NI 06:00:00 TS 16.77 93.68 64
NI 09:00:00 TS 17.02 93.17 64
NI 12:00:00 TS 17.27 92.66 64
NI 15:00:00 TS 17.52 92.12 64
NI 18:00:00 TS 17.77 91.60 64
NI 21:00:00 TS 18.02 91.09 64
NI 1888-09-15 00:00:00 TS 18.27 90.58 64
NI 03:00:00 TS 18.52 90.01 64
NI 06:00:00 TS 18.77 89.40 64
NI 09:00:00 TS 19.02 88.77 64
NI 12:00:00 TS 19.27 88.12 64
NI 15:00:00 TS 19.52 87.47 55
NI 18:00:00 TS 19.79 86.82 47
NI 21:00:00 TS 20.06 86.17 38
NI 1888-09-16 00:00:00 TS 20.30 85.52 30
NI 03:00:00 TS 20.46 84.90 30
NI 06:00:00 TS 20.57 84.29 30
NI 09:00:00 TS 20.67 83.70 30
NI 12:00:00 TS 20.76 83.10 30
NI 15:00:00 TS 20.85 82.50 30
NI 18:00:00 TS 20.96 81.86 30
NI 21:00:00 TS 21.07 81.17 30
NI 1888-09-17 00:00:00 TS 21.16 80.56 30
NI 03:00:00 TS 21.23 80.14 30
NI 06:00:00 TS 21.27 79.87 30
NI 09:00:00 TS 21.27 79.61 30
NI 12:00:00 TS 21.28 79.39 30
NI 15:00:00 TS 21.31 79.20 30
NI 18:00:00 TS 21.37 78.99 30
NI 21:00:00 TS 21.45 78.78 30
NI 1888-09-18 00:00:00 TS 21.60 78.59 30
NI 03:00:00 TS 21.86 78.39 30
NI 06:00:00 TS 22.20 78.21 30
NI 09:00:00 TS 22.58 78.06 30
NI 12:00:00 TS 22.99 77.95 30
NI 15:00:00 TS 23.40 77.87 30
NI 18:00:00 TS 23.79 77.82 30
NI 21:00:00 TS 24.17 77.81 30
NI 1888-09-19 00:00:00 TS 24.58 77.80 30
NI 03:00:00 TS 25.04 77.78 30
NI 06:00:00 TS 25.54 77.74 30
NI 09:00:00 TS 26.04 77.72 30
NI 12:00:00 TS 26.54 77.71 30
NI 15:00:00 TS 27.05 77.68 30
NI 18:00:00 TS 27.52 77.64 30
NI 21:00:00 TS 28.01 77.63 30
NI 1888-09-20 00:00:00 TS 28.47 77.62 30
NI 03:00:00 NR 28.80 77.60

Source Information

Agency Information
USA
TOKYO
CMA
HKO
NEWDELHI
REUNION
BOM
NADI
WELLINGTON
DS824 n_ind.dat:129:NOT NAMED
TD9636 cons_worldwide_trop_cyclone_18710101-19891231-004:Line=1303
TD9635
NEUMANN
MLC

All available IBTrACS Data

SEASON BASIN SUBBASIN ISO_TIME_________ NATURE LAT LON DIST2LAND LANDFALL IFLAG USA SSHS DS824 LAT DS824 LON DS824 STAGE DS824 WIND TD9636 LAT TD9636 LON TD9636 STAGE STORM SPEED STORM DIR
Year degrees north degrees east km km 1 degrees north degrees east kts degrees north degrees east kts degrees
1888 NI BB 1888-09-13 00:00:00 TS 14.90 98.90 0 0 _________O____ -1 14.90 98.90 TC 45 7 285
1888 NI BB 03:00:00 TS 14.99 98.53 0 0 _________PO___ -1 15.04 98.35 TC 49 14.90 98.90 3 9 286
1888 NI BB 06:00:00 TS 15.15 98.02 0 0 _________OP___ -1 15.20 97.80 TC 54 15.07 98.35 3 11 288
1888 NI BB 09:00:00 TS 15.33 97.49 21 21 _________PP___ -1 15.39 97.25 TC 59 15.25 97.80 3 11 290
1888 NI BB 12:00:00 TS 15.51 96.98 78 78 _________OP___ -1 15.60 96.70 TC 64 15.42 97.25 3 11 290
1888 NI BB 15:00:00 TS 15.70 96.42 74 24 _________PO___ -1 15.80 96.15 TC 64 15.60 96.70 4 11 290
1888 NI BB 18:00:00 TS 15.89 95.87 24 0 _________OP___ -1 16.00 95.60 TC 64 15.78 96.15 4 11 290
1888 NI BB 21:00:00 TS 16.08 95.32 0 0 _________PP___ -1 16.19 95.05 TC 64 15.98 95.59 4 11 291
1888 NI BB 1888-09-14 00:00:00 TS 16.29 94.77 0 0 _________OP___ -1 16.40 94.50 TC 64 16.18 95.04 4 11 292
1888 NI BB 03:00:00 TS 16.52 94.22 10 10 _________PO___ -1 16.64 93.94 TC 64 16.40 94.50 4 11 295
1888 NI BB 06:00:00 TS 16.77 93.68 72 72 _________OP___ -1 16.90 93.40 TC 64 16.64 93.97 4 11 296
1888 NI BB 09:00:00 TS 17.02 93.17 128 128 _________PP___ -1 17.15 92.90 TC 64 16.88 93.44 4 11 297
1888 NI BB 12:00:00 TS 17.27 92.66 186 186 _________OP___ -1 17.40 92.40 TC 64 17.14 92.92 4 11 297
1888 NI BB 15:00:00 TS 17.52 92.12 238 230 _________PO___ -1 17.65 91.85 TC 64 17.40 92.40 4 11 296
1888 NI BB 18:00:00 TS 17.77 91.60 259 259 _________OP___ -1 17.90 91.30 TC 64 17.65 91.89 4 11 297
1888 NI BB 21:00:00 TS 18.02 91.09 296 296 _________PP___ -1 18.15 90.81 TC 64 17.90 91.38 4 11 297
1888 NI BB 1888-09-15 00:00:00 TS 18.27 90.58 313 313 _________OP___ -1 18.40 90.30 TC 64 18.15 90.85 4 11 296
1888 NI BB 03:00:00 TS 18.52 90.01 347 314 _________PO___ -1 18.65 89.72 TC 64 18.40 90.30 4 12 294
1888 NI BB 06:00:00 TS 18.77 89.40 314 263 _________OP___ -1 18.90 89.10 TC 64 18.65 89.71 4 13 293
1888 NI BB 09:00:00 TS 19.02 88.77 263 192 _________PP___ -1 19.15 88.46 TC 64 18.90 89.09 4 13 292
1888 NI BB 12:00:00 TS 19.27 88.12 184 122 _________OP___ -1 19.40 87.80 TC 64 19.15 88.45 4 13 292
1888 NI BB 15:00:00 TS 19.52 87.47 122 56 _________PO___ -1 19.65 87.15 TC 55 19.40 87.80 4 13 293
1888 NI BB 18:00:00 TS 19.79 86.82 47 0 _________OP___ -1 19.90 86.50 TC 47 19.67 87.15 4 13 293
1888 NI BB 21:00:00 TS 20.06 86.17 0 0 _________PP___ -1 20.17 85.84 TC 38 19.94 86.49 4 13 293
1888 NI BB 1888-09-16 00:00:00 TS 20.30 85.52 0 0 _________OP___ -1 20.40 85.20 TC 30 20.19 85.84 4 13 289
1888 NI BB 03:00:00 TS 20.46 84.90 0 0 _________PO___ -1 20.52 84.59 TC 30 20.40 85.20 1 12 283
1888 NI BB 06:00:00 TS 20.57 84.29 0 0 _________OP___ -1 20.60 84.00 TC 30 20.54 84.59 1 11 281
1888 NI BB 09:00:00 TS 20.67 83.70 0 0 _________PP___ -1 20.70 83.40 TC 30 20.64 83.99 1 11 280
1888 NI BB 12:00:00 TS 20.76 83.10 0 0 _________OP___ -1 20.80 82.80 TC 30 20.72 83.40 1 11 279
1888 NI BB 15:00:00 TS 20.85 82.50 0 0 _________PO___ -1 20.90 82.21 TC 30 20.80 82.80 1 12 280
1888 NI BB 18:00:00 TS 20.96 81.86 0 0 _________OP___ -1 21.00 81.60 TC 30 20.91 82.12 1 13 280
1888 NI BB 21:00:00 TS 21.07 81.17 0 0 _________PP___ -1 21.11 80.90 TC 30 21.02 81.45 1 12 280
1888 NI BB 1888-09-17 00:00:00 TS 21.16 80.56 0 0 _________OP___ -1 21.20 80.30 TC 30 21.12 80.82 1 10 280
1888 NI BB 03:00:00 TS 21.23 80.14 0 0 _________PO___ -1 21.26 79.99 TC 30 21.20 80.30 1 7 279
1888 NI BB 06:00:00 TS 21.27 79.87 0 0 _________OP___ -1 21.30 79.80 TC 30 21.23 79.93 1 5 275
1888 NI BB 09:00:00 TS 21.27 79.61 0 0 _________PP___ -1 21.30 79.54 TC 30 21.25 79.67 1 4 272
1888 NI BB 12:00:00 TS 21.28 79.39 0 0 _________OP___ -1 21.30 79.30 TC 30 21.26 79.47 1 4 276
1888 NI BB 15:00:00 TS 21.31 79.20 0 0 _________PO___ -1 21.33 79.09 TC 30 21.30 79.30 1 4 283
1888 NI BB 18:00:00 TS 21.37 78.99 0 0 _________OP___ -1 21.40 78.90 TC 30 21.33 79.08 1 4 290
1888 NI BB 21:00:00 TS 21.45 78.78 0 0 _________PP___ -1 21.50 78.70 TC 30 21.39 78.87 1 4 302
1888 NI BB 1888-09-18 00:00:00 TS 21.60 78.59 0 0 _________OP___ -1 21.70 78.50 TC 30 21.51 78.68 1 5 318
1888 NI BB 03:00:00 TS 21.86 78.39 0 0 _________PO___ -1 22.01 78.29 TC 30 21.70 78.50 1 7 329
1888 NI BB 06:00:00 TS 22.20 78.21 0 0 _________OP___ -1 22.40 78.10 TC 30 21.99 78.32 1 8 337
1888 NI BB 09:00:00 TS 22.58 78.06 0 0 _________PP___ -1 22.79 77.98 TC 30 22.36 78.15 1 8 344
1888 NI AS 12:00:00 TS 22.99 77.95 0 0 _________OP___ -1 23.20 77.90 TC 30 22.77 78.01 1 8 348
1888 NI AS 15:00:00 TS 23.40 77.87 0 0 _________PO___ -1 23.60 77.83 TC 30 23.20 77.90 1 8 351
1888 NI AS 18:00:00 TS 23.79 77.82 0 0 _________OP___ -1 24.00 77.80 TC 30 23.58 77.84 1 8 356
1888 NI AS 21:00:00 TS 24.17 77.81 0 0 _________PP___ -1 24.38 77.80 TC 30 23.96 77.81 1 8 0
1888 NI AS 1888-09-19 00:00:00 TS 24.58 77.80 0 0 _________OP___ -1 24.80 77.80 TC 30 24.37 77.80 1 9 0
1888 NI AS 03:00:00 TS 25.04 77.78 0 0 _________PO___ -1 25.29 77.75 TC 30 24.80 77.80 1 10 357
1888 NI AS 06:00:00 TS 25.54 77.74 0 0 _________OP___ -1 25.80 77.70 TC 30 25.27 77.77 1 10 358
1888 NI AS 09:00:00 TS 26.04 77.72 0 0 _________PP___ -1 26.30 77.70 TC 30 25.77 77.75 1 10 359
1888 NI AS 12:00:00 TS 26.54 77.71 0 0 _________OP___ -1 26.80 77.70 TC 30 26.28 77.72 1 10 358
1888 NI AS 15:00:00 TS 27.05 77.68 0 0 _________PO___ -1 27.30 77.65 TC 30 26.80 77.70 1 10 357
1888 NI AS 18:00:00 TS 27.52 77.64 0 0 _________OP___ -1 27.80 77.60 TC 30 27.31 77.68 1 10 357
1888 NI AS 21:00:00 TS 28.01 77.63 0 0 _________PP___ -1 28.30 77.59 TC 30 27.81 77.65 1 10 0
1888 NI AS 1888-09-20 00:00:00 TS 28.47 77.62 0 0 _________OP___ -1 28.80 77.60 TC 30 28.31 77.63 1 8 359
1888 NI AS 03:00:00 NR 28.80 77.60 0 __________O___ -1 TC 28.80 77.60 1 7 0